^^
Dati Storici Stazione
Giornaliero Riassunto Gennaio 22, 2022 Unita' di misura:  Inglesi    Metriche   Entrambe
Giornaliero Settimanale Mensile Annuale
  Max: Min: Media:
Temperatura: 45.9 °F 35.5 °F 40.8 °F
Punto di Rugiada: 36.2 °F 23.2 °F 27.8 °F
Umidita': 87% 45.1% 60%
Velocita' Vento: 11.2mph 0.3mph 4.6mph
Raffica di Vento: 26.5mph - -
Direzione Vento- - SE
Pressione: 30.25 in 30.14 in -
Precipitazioni: 0.02 in    
 
 
Tabelle Dati per il Gennaio 22, 2022
Ora Temperatura Punto Rugiada Pressione Dir.Vento Vel.Vento Raff.Vento Umidita' Rainfall Rate (Orario) Solare Condizioni
00:04 40.3 °F 35.1 °F 30.16 in NE 2.9 mph 8 mph 81.7% 0.00 in W/m2
00:09 40.4 °F 34.6 °F 30.16 in NNE 2.9 mph 6 mph 79.8% 0.00 in W/m2
00:14 40.4 °F 34.2 °F 30.16 in NE 2.8 mph 6 mph 78.3% 0.00 in W/m2
00:19 40.4 °F 33.5 °F 30.16 in NE 3 mph 6 mph 76.4% 0.00 in W/m2
00:24 40.4 °F 32.9 °F 30.16 in East 4.4 mph 12 mph 74.3% 0.00 in W/m2
00:29 40.4 °F 32.3 °F 30.15 in NE 5.9 mph 13 mph 72.5% 0.00 in W/m2
00:34 40.4 °F 31.7 °F 30.15 in NE 6.2 mph 13 mph 71% 0.00 in W/m2
00:39 40.3 °F 31.5 °F 30.15 in NE 5.2 mph 13 mph 70.7% 0.00 in W/m2
00:44 40.2 °F 31.1 °F 30.16 in NE 5.4 mph 12 mph 69.7% 0.00 in W/m2
00:49 40.1 °F 30.7 °F 30.16 in ENE 5.6 mph 11 mph 69% 0.00 in W/m2
00:54 40 °F 30.4 °F 30.16 in NE 6.2 mph 15 mph 68.2% 0.00 in W/m2
00:59 39.9 °F 30 °F 30.16 in NE 6.3 mph 15 mph 67.5% 0.00 in W/m2
01:04 39.8 °F 29.7 °F 30.16 in NE 6.3 mph 12 mph 67% 0.00 in W/m2
01:09 39.7 °F 29.6 °F 30.16 in NE 5.4 mph 13 mph 67% 0.00 in W/m2
01:14 39.4 °F 29.4 °F 30.16 in NE 5.3 mph 13 mph 67% 0.00 in W/m2
01:19 39.2 °F 29.2 °F 30.16 in NE 4.7 mph 10 mph 67% 0.00 in W/m2
01:24 39 °F 28.8 °F 30.16 in NE 3.9 mph 10 mph 66.4% 0.00 in W/m2
01:29 38.8 °F 28.8 °F 30.16 in NE 3.7 mph 10.4 mph 66.9% 0.00 in W/m2
01:34 38.6 °F 28.2 °F 30.16 in NE 5.6 mph 15 mph 65.8% 0.00 in W/m2
01:39 38.5 °F 27.8 °F 30.16 in NE 6.3 mph 15 mph 65.3% 0.00 in W/m2
01:44 38.4 °F 27.9 °F 30.16 in NE 6.3 mph 13 mph 65.5% 0.00 in W/m2
01:49 38.4 °F 27.4 °F 30.16 in NE 5.3 mph 13 mph 64.1% 0.00 in W/m2
01:54 38.3 °F 27.5 °F 30.17 in NE 4.2 mph 12 mph 64.6% 0.00 in W/m2
01:59 38.2 °F 27 °F 30.17 in NE 4.1 mph 9.2 mph 63.8% 0.00 in W/m2
02:04 38.1 °F 26.3 °F 30.17 in NE 3.9 mph 12 mph 62.4% 0.00 in W/m2
02:09 37.9 °F 25.7 °F 30.17 in NE 4.5 mph 12 mph 61.2% 0.00 in W/m2
02:14 37.7 °F 25.2 °F 30.17 in NE 3.4 mph 8.1 mph 60.2% 0.00 in W/m2
02:19 37.6 °F 24.8 °F 30.17 in NE 3.9 mph 9.2 mph 59.6% 0.00 in W/m2
02:24 37.5 °F 24.3 °F 30.17 in NE 4.4 mph 9.2 mph 58.6% 0.00 in W/m2
02:29 37.5 °F 23.8 °F 30.17 in NE 4 mph 8.1 mph 57.5% 0.00 in W/m2
02:34 37.4 °F 23.6 °F 30.17 in NE 4.2 mph 9 mph 57.2% 0.00 in W/m2
02:39 37.4 °F 23.2 °F 30.16 in NE 4.8 mph 10 mph 56.3% 0.00 in W/m2
02:44 37.4 °F 23.2 °F 30.16 in NE 4 mph 10 mph 56.3% 0.00 in W/m2
02:49 37.3 °F 23.4 °F 30.16 in NE 4.1 mph 9.2 mph 57% 0.00 in W/m2
02:54 37.2 °F 23.8 °F 30.16 in NE 4.2 mph 9 mph 58% 0.00 in W/m2
02:59 37.1 °F 23.9 °F 30.16 in ENE 3.8 mph 7 mph 58.5% 0.00 in W/m2
03:04 37.1 °F 24.1 °F 30.16 in NE 3.7 mph 8.1 mph 59% 0.00 in W/m2
03:09 37.1 °F 24.5 °F 30.16 in NE 3.1 mph 8 mph 60% 0.00 in W/m2
03:14 37.1 °F 24.7 °F 30.16 in NE 2.2 mph 7 mph 60.5% 0.00 in W/m2
03:19 36.9 °F 24.9 °F 30.16 in NE 1.9 mph 5 mph 61.5% 0.00 in W/m2
03:24 36.8 °F 25.1 °F 30.16 in NE 2.9 mph 6 mph 62.3% 0.00 in W/m2
03:29 36.7 °F 25.3 °F 30.16 in NE 3.9 mph 8 mph 63% 0.00 in W/m2
03:34 36.8 °F 25 °F 30.16 in NE 3.9 mph 8.1 mph 62% 0.00 in W/m2
03:39 36.7 °F 24.9 °F 30.16 in NE 3.4 mph 8 mph 62% 0.00 in W/m2
03:44 36.7 °F 24.9 °F 30.16 in NE 2.9 mph 7 mph 62% 0.00 in W/m2
03:49 36.6 °F 24.8 °F 30.16 in NE 3.6 mph 6 mph 62% 0.00 in W/m2
03:54 36.5 °F 24.7 °F 30.16 in NE 2.4 mph 6 mph 62% 0.00 in W/m2
03:59 36.4 °F 24.6 °F 30.16 in NE 2.6 mph 6 mph 62% 0.00 in W/m2
04:04 36.4 °F 24.6 °F 30.16 in NE 2.2 mph 6 mph 62% 0.00 in W/m2
04:09 36.4 °F 24.6 °F 30.16 in NE 2 mph 5 mph 62% 0.00 in W/m2
04:14 36.3 °F 24.5 °F 30.16 in NE 2.4 mph 7 mph 62% 0.00 in W/m2
04:19 36.2 °F 24.1 °F 30.16 in NE 2.8 mph 7 mph 61.1% 0.00 in W/m2
04:23 36.3 °F 24.1 °F 30.15 in NE 3 mph 7 mph 61% 0.00 in W/m2
04:29 36.5 °F 24.5 °F 30.16 in NE 1.8 mph 5 mph 61.4% 0.00 in W/m2
04:34 36.6 °F 24.7 °F 30.16 in NE 1.5 mph 5 mph 61.8% 0.00 in W/m2
04:39 36.6 °F 24.8 °F 30.16 in North 1.4 mph 4 mph 62% 0.00 in W/m2
04:44 36.4 °F 24.7 °F 30.16 in NW 0.3 mph 4 mph 62.1% 0.00 in W/m2
04:49 36.2 °F 24.8 °F 30.16 in NNW 0.3 mph 3.5 mph 63% 0.00 in W/m2
04:54 35.8 °F 24.9 °F 30.16 in NNW 1.6 mph 5 mph 64.4% 0.00 in W/m2
04:59 35.5 °F 25.3 °F 30.16 in North 1.8 mph 5 mph 65.9% 0.00 in W/m2
05:04 35.5 °F 25.6 °F 30.16 in NNE 2.1 mph 6 mph 67% 0.00 in W/m2
05:09 35.9 °F 25.8 °F 30.16 in NE 2.2 mph 6 mph 66.6% 0.00 in W/m2
05:14 36.1 °F 26.2 °F 30.16 in NNE 2.1 mph 6 mph 67% 0.00 in W/m2
05:19 36.3 °F 26.1 °F 30.16 in NNW 3.6 mph 9.2 mph 66.2% 0.00 in W/m2
05:24 36.5 °F 26.5 °F 30.16 in NNW 2.9 mph 9 mph 66.9% 0.00 in W/m2
05:29 36.5 °F 26.9 °F 30.16 in NNW 2 mph 7 mph 68% 0.00 in W/m2
05:34 36.5 °F 27.4 °F 30.16 in NNW 1.5 mph 6 mph 69.5% 0.00 in W/m2
05:39 36.3 °F 27.8 °F 30.16 in NNW 1.6 mph 6 mph 71.1% 0.00 in W/m2
05:44 36.2 °F 28.2 °F 30.16 in NW 1.4 mph 5 mph 72.5% 0.00 in W/m2
05:49 36.1 °F 28.3 °F 30.16 in North 1.3 mph 5 mph 73% 0.00 in W/m2
05:54 36.1 °F 28.3 °F 30.16 in NW 1.7 mph 5 mph 73% 0.00 in W/m2
05:59 36.1 °F 28.5 °F 30.16 in NNW 2.4 mph 8.1 mph 73.9% 0.00 in W/m2
06:04 36 °F 28.5 °F 30.16 in NW 2.1 mph 8 mph 74% 0.00 in W/m2
06:09 36 °F 28.5 °F 30.16 in NNW 3.2 mph 8.1 mph 74% 0.00 in W/m2
06:14 36 °F 28.5 °F 30.16 in NNW 2.6 mph 8.1 mph 74% 0.00 in W/m2
06:19 36 °F 28.5 °F 30.16 in NW 3 mph 8.1 mph 74% 0.00 in W/m2
06:24 36.1 °F 28.6 °F 30.17 in North 3.2 mph 9.2 mph 74% 0.00 in W/m2
06:29 36.2 °F 28.4 °F 30.17 in NNW 2.7 mph 9 mph 73.1% 0.00 in W/m2
06:34 36.1 °F 28.3 °F 30.17 in NNW 2.9 mph 7 mph 73% 0.00 in W/m2
06:39 36 °F 28.5 °F 30.17 in North 2.3 mph 7 mph 74% 0.00 in W/m2
06:44 36 °F 28.5 °F 30.17 in NW 2.4 mph 7 mph 74% 0.00 in W/m2
06:49 36 °F 28.5 °F 30.17 in NNE 2.1 mph 6 mph 74% 0.00 in W/m2
06:54 36.1 °F 28.5 °F 30.17 in North 2.8 mph 6 mph 73.9% 0.00 in W/m2
06:59 36.1 °F 28.3 °F 30.17 in North 3.1 mph 7 mph 73% 0.00 in W/m2
07:04 36.1 °F 28.3 °F 30.17 in NNW 3 mph 9.2 mph 73% 0.00 in W/m2
07:09 36.2 °F 28.1 °F 30.17 in North 2.7 mph 9 mph 72.4% 0.00 in W/m2
07:14 36.2 °F 28 °F 30.17 in NNE 2.1 mph 7 mph 72% 0.00 in W/m2
07:19 36.2 °F 27.8 °F 30.17 in North 2.4 mph 6 mph 71.2% 0.00 in W/m2
07:24 36.2 °F 27.6 °F 30.17 in North 3.4 mph 7 mph 70.7% 0.00 in W/m2
07:29 36.3 °F 27.4 °F 30.17 in NNW 2.5 mph 7 mph 70% 0.00 in W/m2
07:34 36.3 °F 27.4 °F 30.17 in NNW 3.3 mph 8.1 mph 70% 0.00 in W/m2
07:39 36.4 °F 27.5 °F 30.17 in NNE 2.6 mph 8 mph 70% 0.00 in W/m2
07:44 36.5 °F 27.6 °F 30.17 in NW 3.1 mph 8 mph 70% 0.00 in W/m2
07:49 36.7 °F 27.5 °F 30.17 in North 3.2 mph 8 mph 69% 0.00 in W/m2
07:54 36.8 °F 27.6 °F 30.17 in North 2.2 mph 8 mph 68.8% 0.00 in W/m2
07:59 37 °F 27.4 °F 30.17 in NNW 2.4 mph 6 mph 68% 0.00 in W/m2
08:04 37.1 °F 27.5 °F 30.17 in North 2.2 mph 6 mph 68% 0.00 in W/m2
08:09 37.2 °F 27.6 °F 30.17 in NNE 3.2 mph 7 mph 67.8% 0.00 in W/m2
08:14 37.5 °F 27.3 °F 30.17 in NE 2.4 mph 7 mph 66.4% 0.00 in W/m2
08:19 38.1 °F 27.4 °F 30.17 in North 2.9 mph 8.1 mph 65.2% 0.00 in W/m2
08:24 38.6 °F 26.6 °F 30.17 in NE 4.9 mph 15 mph 61.8% 0.00 in W/m2
08:29 39.1 °F 25.2 °F 30.17 in NE 6.8 mph 16.1 mph 57.1% 0.00 in W/m2
08:34 39.8 °F 25 °F 30.17 in NE 5.5 mph 16 mph 55.2% 0.00 in W/m2
08:39 40.2 °F 25.1 °F 30.16 in NE 5.9 mph 17 mph 54.5% 0.00 in W/m2
08:44 40.5 °F 25.2 °F 30.16 in NE 4.6 mph 17 mph 54% 0.00 in W/m2
08:49 40.8 °F 25.5 °F 30.17 in NE 3.5 mph 10 mph 54.2% 0.00 in W/m2
08:54 41.1 °F 25.1 °F 30.16 in NE 4.9 mph 10.4 mph 52.5% 0.00 in W/m2
08:59 41.2 °F 24.5 °F 30.16 in NE 5.9 mph 12 mph 51.1% 0.00 in W/m2
09:04 41.4 °F 24.1 °F 30.16 in NE 5.6 mph 12 mph 50% 0.00 in W/m2
09:09 41.5 °F 24 °F 30.16 in NE 7.4 mph 14 mph 49.5% 0.00 in W/m2
09:14 41.7 °F 24 °F 30.16 in NE 7.2 mph 15 mph 49.2% 0.00 in W/m2
09:19 41.8 °F 24.2 °F 30.16 in NE 7.1 mph 15 mph 49.4% 0.00 in W/m2
09:24 41.9 °F 24.2 °F 30.16 in ENE 8.5 mph 17 mph 49.1% 0.00 in W/m2
09:29 42 °F 24.2 °F 30.16 in NE 7.5 mph 17 mph 49% 0.00 in W/m2
09:34 42.1 °F 24.3 °F 30.16 in NE 8.1 mph 15 mph 49% 0.00 in W/m2
09:39 42.3 °F 24.6 °F 30.16 in NE 7.7 mph 16 mph 49.3% 0.00 in W/m2
09:44 42.4 °F 24.6 °F 30.16 in NE 7.7 mph 16 mph 49% 0.00 in W/m2
09:49 42.5 °F 24.7 °F 30.16 in NE 7.9 mph 16 mph 49% 0.00 in W/m2
09:54 42.6 °F 25.5 °F 30.17 in NE 6.2 mph 15 mph 50.6% 0.00 in W/m2
09:59 42.9 °F 26 °F 30.17 in NE 6.5 mph 12 mph 51% 0.00 in W/m2
10:04 43.1 °F 26.6 °F 30.17 in NE 6.5 mph 12 mph 51.8% 0.00 in W/m2
10:09 43.2 °F 26.4 °F 30.17 in NE 8.1 mph 15 mph 51.1% 0.00 in W/m2
10:14 43.2 °F 26.4 °F 30.17 in NE 8.1 mph 19 mph 51.4% 0.00 in W/m2
10:19 43.3 °F 26.7 °F 30.17 in NE 9.1 mph 19 mph 51.6% 0.00 in W/m2
10:24 43.4 °F 26.1 °F 30.17 in NE 8.3 mph 17.3 mph 50.2% 0.00 in W/m2
10:29 43.4 °F 25.7 °F 30.17 in NE 9.6 mph 17.3 mph 49.3% 0.00 in W/m2
10:34 43.5 °F 25.6 °F 30.17 in NE 7.9 mph 17.3 mph 49% 0.00 in W/m2
10:39 43.6 °F 26 °F 30.17 in NE 8.9 mph 26.5 mph 49.5% 0.00 in W/m2
10:44 43.6 °F 25.7 °F 30.17 in NE 9.4 mph 26 mph 49% 0.00 in W/m2
10:54 43.6 °F 25.7 °F 30.17 in NE 11.2 mph 24 mph 49% 0.00 in W/m2
10:59 43.7 °F 25.1 °F 30.17 in NE 9.6 mph 24 mph 47.7% 0.00 in W/m2
11:04 43.7 °F 24.1 °F 30.17 in NE 9.4 mph 23 mph 45.8% 0.00 in W/m2
11:09 43.8 °F 24.3 °F 30.17 in NE 6.9 mph 23 mph 46% 0.00 in W/m2
11:14 44.1 °F 25.6 °F 30.17 in NE 8 mph 16.1 mph 48% 0.00 in W/m2
11:19 44 °F 25.4 °F 30.17 in NE 8.5 mph 16.1 mph 47.8% 0.00 in W/m2
11:24 43.9 °F 25.7 °F 30.17 in NE 7.9 mph 16.1 mph 48.4% 0.00 in W/m2
11:29 44.1 °F 26 °F 30.17 in NE 9.3 mph 17.3 mph 48.9% 0.00 in W/m2
11:34 44.2 °F 26.4 °F 30.17 in NE 7.1 mph 18.4 mph 49.4% 0.00 in W/m2
11:39 44.3 °F 26.7 °F 30.17 in NE 7.8 mph 18 mph 49.8% 0.00 in W/m2
11:44 44.3 °F 26.8 °F 30.17 in NE 8.3 mph 19.6 mph 50% 0.00 in W/m2
11:49 44.1 °F 26.2 °F 30.17 in NE 9 mph 20 mph 49.1% 0.00 in W/m2
11:54 44.3 °F 25.9 °F 30.17 in NE 6.7 mph 20 mph 48.1% 0.00 in W/m2
11:59 44.5 °F 25.7 °F 30.17 in NE 8.3 mph 16 mph 47.5% 0.00 in W/m2
12:04 44.4 °F 26.6 °F 30.17 in NE 7.2 mph 16.1 mph 49.4% 0.00 in W/m2
12:09 44.5 °F 27 °F 30.17 in NE 7.1 mph 20 mph 49.9% 0.00 in W/m2
12:14 44.6 °F 26 °F 30.16 in NE 6.1 mph 20 mph 47.9% 0.00 in W/m2
12:19 44.6 °F 25.9 °F 30.16 in NE 9 mph 16.1 mph 47.6% 0.00 in W/m2
12:24 44.5 °F 26.4 °F 30.16 in NE 9.6 mph 19.6 mph 48.9% 0.00 in W/m2
12:29 44.5 °F 25.6 °F 30.16 in NE 7.8 mph 22 mph 47.3% 0.00 in W/m2
12:34 44.4 °F 25.5 °F 30.16 in NE 7.6 mph 22 mph 47.2% 0.00 in W/m2
12:39 44.5 °F 26.1 °F 30.16 in NE 6.2 mph 16 mph 48.2% 0.00 in W/m2
12:44 44.9 °F 26.3 °F 30.16 in NE 5.6 mph 15 mph 47.9% 0.00 in W/m2
12:49 44.9 °F 26.1 °F 30.16 in NE 8 mph 18.4 mph 47.4% 0.00 in W/m2
12:54 44.6 °F 26.5 °F 30.16 in NE 6.4 mph 18 mph 48.7% 0.00 in W/m2
12:59 44.7 °F 26.7 °F 30.15 in NE 5.1 mph 15 mph 49% 0.00 in W/m2
13:04 44.8 °F 26.4 °F 30.16 in NE 7.6 mph 14 mph 48.1% 0.00 in W/m2
13:09 44.6 °F 26.8 °F 30.16 in NE 5.9 mph 14 mph 49.3% 0.00 in W/m2
13:14 44.9 °F 27.4 °F 30.15 in NE 5.8 mph 12 mph 50% 0.00 in W/m2
13:19 45 °F 27.5 °F 30.16 in NE 5.6 mph 12 mph 50.1% 0.00 in W/m2
13:24 44.8 °F 26.9 °F 30.16 in NE 4.9 mph 12 mph 49.2% 0.00 in W/m2
13:29 44.9 °F 27.6 °F 30.15 in NE 5 mph 14 mph 50.4% 0.00 in W/m2
13:34 45.3 °F 27.3 °F 30.15 in NE 5.8 mph 14 mph 49.1% 0.00 in W/m2
13:39 45.6 °F 26.8 °F 30.15 in NE 6 mph 12 mph 47.7% 0.00 in W/m2
13:44 45.7 °F 26.4 °F 30.15 in NNE 6.1 mph 15 mph 46.7% 0.00 in W/m2
13:49 45.9 °F 25.9 °F 30.15 in NNE 6.1 mph 15 mph 45.4% 0.00 in W/m2
13:54 45.7 °F 25.6 °F 30.15 in NNE 6 mph 15 mph 45.1% 0.00 in W/m2
13:59 45.2 °F 25.9 °F 30.15 in NNE 5 mph 14 mph 46.5% 0.00 in W/m2
14:04 44.9 °F 26.7 °F 30.15 in NNE 4.5 mph 12 mph 48.6% 0.00 in W/m2
14:09 44.6 °F 26.1 °F 30.15 in North 5.9 mph 17 mph 48.1% 0.00 in W/m2
14:14 44.3 °F 25.3 °F 30.15 in NNE 5.7 mph 17 mph 47% 0.00 in W/m2
14:19 44.1 °F 25.6 °F 30.15 in NNE 4.9 mph 12 mph 48% 0.00 in W/m2
14:24 44 °F 25.5 °F 30.15 in NE 5.8 mph 15 mph 47.9% 0.00 in W/m2
14:29 43.7 °F 24.9 °F 30.15 in NNE 6 mph 15 mph 47% 0.00 in W/m2
14:34 43.5 °F 24.6 °F 30.15 in NNE 5.4 mph 13 mph 47% 0.00 in W/m2
14:39 43.4 °F 24.9 °F 30.15 in NNE 3.7 mph 13 mph 47.9% 0.00 in W/m2
14:44 43.3 °F 25.3 °F 30.16 in North 2.9 mph 7 mph 48.7% 0.00 in W/m2
14:49 43.2 °F 25.4 °F 30.15 in North 3.6 mph 9.2 mph 49.2% 0.00 in W/m2
14:54 43.2 °F 25.8 °F 30.16 in North 2.9 mph 9 mph 50% 0.00 in W/m2
14:59 43 °F 25.6 °F 30.15 in NNW 4.3 mph 13 mph 50% 0.00 in W/m2
15:04 42.8 °F 25.4 °F 30.16 in NNW 6.1 mph 13 mph 50% 0.00 in W/m2
15:09 42.6 °F 25.3 °F 30.16 in WNW 5 mph 13 mph 50.1% 0.00 in W/m2
15:14 42.5 °F 25.4 °F 30.16 in NNW 4.6 mph 12 mph 50.6% 0.00 in W/m2
15:19 42.4 °F 25.5 °F 30.16 in North 3.1 mph 12 mph 50.9% 0.00 in W/m2
15:24 42.4 °F 25.6 °F 30.16 in NW 2.9 mph 9 mph 51.2% 0.00 in W/m2
15:29 42.4 °F 25.9 °F 30.16 in WNW 1.2 mph 7 mph 51.9% 0.00 in W/m2
15:34 42.5 °F 26.1 °F 30.15 in WNW 1.3 mph 4 mph 52% 0.00 in W/m2
15:39 42.7 °F 26.3 °F 30.15 in North 1.1 mph 6 mph 52% 0.00 in W/m2
15:44 42.7 °F 26.3 °F 30.15 in WNW 1.7 mph 7 mph 52% 0.00 in W/m2
15:49 42.6 °F 26.4 °F 30.15 in NNW 2.5 mph 7 mph 52.5% 0.00 in W/m2
15:54 42.6 °F 26.8 °F 30.15 in NNW 3 mph 12 mph 53.5% 0.00 in W/m2
15:59 42.6 °F 27.1 °F 30.15 in West 3.2 mph 12 mph 54% 0.00 in W/m2
16:04 42.6 °F 27.5 °F 30.15 in NW 1.6 mph 8 mph 55% 0.00 in W/m2
16:09 42.6 °F 27.5 °F 30.15 in NNW 0.9 mph 8 mph 55% 0.00 in W/m2
16:14 42.6 °F 27.7 °F 30.15 in WNW 2.7 mph 10 mph 55.3% 0.00 in W/m2
16:19 42.7 °F 27.6 °F 30.15 in NNW 2 mph 10.4 mph 55% 0.00 in W/m2
16:24 42.7 °F 27.9 °F 30.15 in NW 1.9 mph 8 mph 55.6% 0.00 in W/m2
16:29 42.8 °F 28.2 °F 30.15 in West 0.9 mph 8 mph 56% 0.00 in W/m2
16:34 43 °F 28.4 °F 30.15 in SW 1 mph 4 mph 56% 0.00 in W/m2
16:39 43.3 °F 28.6 °F 30.14 in West 1.6 mph 6 mph 56% 0.00 in W/m2
16:44 43.6 °F 28.6 °F 30.14 in WNW 1.6 mph 6 mph 55.5% 0.00 in W/m2
16:49 43.5 °F 28.6 °F 30.14 in WNW 2 mph 8.1 mph 55.4% 0.00 in W/m2
16:54 43.1 °F 28.5 °F 30.14 in North 1.3 mph 8 mph 56% 0.00 in W/m2
16:59 42.7 °F 28.4 °F 30.15 in NNW 2.8 mph 7 mph 56.8% 0.00 in W/m2
17:04 42.5 °F 28.3 °F 30.14 in NNW 2 mph 7 mph 57% 0.00 in W/m2
17:09 42.4 °F 28.2 °F 30.14 in NNW 3.3 mph 9 mph 57% 0.00 in W/m2
17:14 42.4 °F 27.9 °F 30.14 in NNW 5.4 mph 10.4 mph 56.4% 0.00 in W/m2
17:19 42.5 °F 27.9 °F 30.14 in NNW 3.6 mph 10 mph 56% 0.00 in W/m2
17:24 42.6 °F 27.5 °F 30.14 in NW 4 mph 10 mph 55% 0.00 in W/m2
17:29 42.7 °F 27.3 °F 30.14 in NW 3.8 mph 11.5 mph 54.3% 0.00 in W/m2
17:34 42.8 °F 27.1 °F 30.14 in WNW 4.1 mph 12 mph 53.6% 0.00 in W/m2
17:39 42.9 °F 27 °F 30.14 in NW 4 mph 10.4 mph 53.3% 0.00 in W/m2
17:44 42.9 °F 27.4 °F 30.14 in NNW 3.1 mph 10 mph 54% 0.00 in W/m2
17:49 42.9 °F 26.9 °F 30.14 in WNW 4.1 mph 10.4 mph 53.1% 0.00 in W/m2
17:54 42.9 °F 27.3 °F 30.15 in NNW 3.6 mph 10 mph 53.7% 0.00 in W/m2
17:59 42.8 °F 27.3 °F 30.15 in NW 2.9 mph 8.1 mph 54% 0.00 in W/m2
18:04 42.7 °F 27.4 °F 30.15 in NNW 3.9 mph 10.4 mph 54.6% 0.00 in W/m2
18:09 42.5 °F 27.5 °F 30.15 in NW 3.9 mph 11 mph 55% 0.00 in W/m2
18:14 42.5 °F 27.2 °F 30.15 in NW 4 mph 11 mph 54.5% 0.00 in W/m2
18:19 42.4 °F 27 °F 30.15 in NW 4.2 mph 11.5 mph 54.3% 0.00 in W/m2
18:24 42.4 °F 26.9 °F 30.15 in NW 4.3 mph 9.2 mph 54% 0.00 in W/m2
18:29 42.4 °F 26.9 °F 30.15 in NW 3.7 mph 9 mph 54% 0.00 in W/m2
18:34 42.6 °F 26.6 °F 30.15 in NW 5 mph 11.5 mph 53.1% 0.00 in W/m2
18:39 42.8 °F 26.7 °F 30.15 in North 5.8 mph 12 mph 52.9% 0.00 in W/m2
18:44 43 °F 26.6 °F 30.15 in North 4.3 mph 12 mph 52% 0.00 in W/m2
18:49 43.2 °F 26.7 °F 30.15 in North 3.9 mph 12 mph 52% 0.00 in W/m2
18:54 43.2 °F 26.7 °F 30.15 in NNE 4.3 mph 11.5 mph 51.9% 0.00 in W/m2
18:59 43.3 °F 26.6 °F 30.16 in NNE 3.9 mph 12 mph 51.7% 0.00 in W/m2
19:04 43.3 °F 26.5 °F 30.16 in NNW 4.9 mph 12 mph 51.2% 0.00 in W/m2
19:09 43.3 °F 26.7 °F 30.16 in NNW 3.3 mph 12 mph 51.8% 0.00 in W/m2
19:14 43.3 °F 26.8 °F 30.16 in North 5.1 mph 12 mph 52% 0.00 in W/m2
19:19 43.2 °F 26.7 °F 30.16 in North 5.1 mph 12 mph 52% 0.00 in W/m2
19:24 43.2 °F 26.7 °F 30.16 in North 4.5 mph 10.4 mph 52% 0.00 in W/m2
19:29 43.1 °F 26.7 °F 30.16 in NNW 5 mph 14 mph 52% 0.00 in W/m2
19:34 43.1 °F 26.6 °F 30.16 in NW 6 mph 14 mph 51.8% 0.00 in W/m2
19:39 43.1 °F 26.6 °F 30.16 in NW 5.3 mph 13 mph 51.8% 0.00 in W/m2
19:44 42.9 °F 26.5 °F 30.16 in North 4.7 mph 13 mph 52% 0.00 in W/m2
19:49 42.9 °F 26.5 °F 30.17 in NNW 4.7 mph 12 mph 52.2% 0.00 in W/m2
19:54 42.8 °F 26.8 °F 30.16 in North 4.6 mph 12 mph 53% 0.00 in W/m2
19:59 42.8 °F 26.8 °F 30.17 in NNE 3.8 mph 10.4 mph 53% 0.00 in W/m2
20:04 42.9 °F 27 °F 30.17 in NNE 4.1 mph 11.5 mph 53.2% 0.00 in W/m2
20:09 43 °F 27.5 °F 30.17 in NNE 5.7 mph 12 mph 54% 0.00 in W/m2
20:14 43.3 °F 27.8 °F 30.18 in NE 5.2 mph 11.5 mph 54% 0.00 in W/m2
20:19 43.4 °F 28.3 °F 30.19 in NE 6.1 mph 14 mph 54.9% 0.00 in W/m2
20:24 43.6 °F 28.9 °F 30.20 in NE 5.3 mph 14 mph 56% 0.00 in W/m2
20:29 43.6 °F 30.2 °F 30.20 in NE 5.7 mph 13 mph 59.1% 0.00 in W/m2
20:34 42.6 °F 32.6 °F 30.20 in NE 9.5 mph 23 mph 67.5% 0.00 in W/m2
20:39 41.6 °F 34.4 °F 30.21 in NE 7.4 mph 23 mph 75.5% 0.01 in W/m2
20:44 41 °F 35 °F 30.21 in NE 5.5 mph 15 mph 78.9% 0.02 in W/m2
20:49 40.6 °F 35.5 °F 30.21 in NNE 4.5 mph 11.5 mph 82% 0.02 in W/m2
20:54 40.1 °F 35.7 °F 30.21 in North 5.2 mph 14 mph 84.1% 0.02 in W/m2
20:59 39.8 °F 35.9 °F 30.21 in North 6.9 mph 15 mph 85.6% 0.02 in W/m2
21:04 39.6 °F 35.8 °F 30.21 in NNW 6.6 mph 15 mph 86% 0.02 in W/m2
21:09 39.3 °F 35.5 °F 30.21 in NW 6.4 mph 15 mph 86% 0.02 in W/m2
21:14 39.1 °F 35.5 °F 30.21 in NW 5.3 mph 14 mph 86.6% 0.02 in W/m2
21:19 39.1 °F 35.6 °F 30.22 in NNW 5.4 mph 14 mph 87% 0.02 in W/m2
21:24 39.2 °F 35.4 °F 30.22 in NNW 6.1 mph 15 mph 86.2% 0.02 in W/m2
21:29 39.4 °F 35.6 °F 30.22 in North 4.9 mph 15 mph 86% 0.02 in W/m2
21:34 39.5 °F 35.7 °F 30.22 in NNW 5.1 mph 14 mph 86% 0.02 in W/m2
21:39 39.6 °F 35.7 °F 30.22 in NNW 6.4 mph 15 mph 85.8% 0.02 in W/m2
21:44 39.6 °F 35.8 °F 30.22 in NNW 4.9 mph 15 mph 86% 0.01 in W/m2
21:49 39.6 °F 35.9 °F 30.22 in NNW 5 mph 13 mph 86.3% 0.01 in W/m2
21:54 39.6 °F 36 °F 30.22 in NNW 4.9 mph 13 mph 87% 0.00 in W/m2
21:59 39.6 °F 36 °F 30.22 in NNW 3.2 mph 10 mph 87% 0.00 in W/m2
22:04 39.7 °F 36.1 °F 30.22 in NNW 4.5 mph 10.4 mph 87% 0.00 in W/m2
22:09 39.8 °F 36.2 °F 30.22 in NNW 3.8 mph 12 mph 87% 0.00 in W/m2
22:14 40 °F 36.2 °F 30.22 in NNW 4 mph 13 mph 86.1% 0.00 in W/m2
22:19 40.3 °F 36.2 °F 30.22 in NNE 3.7 mph 13 mph 85.4% 0.00 in W/m2
22:24 40.6 °F 36.1 °F 30.22 in NE 3.7 mph 8.1 mph 84% 0.00 in W/m2
22:29 40.9 °F 35.8 °F 30.23 in NNE 2.9 mph 8 mph 82% 0.00 in W/m2
22:34 41.1 °F 35.7 °F 30.23 in NE 3.1 mph 7 mph 80.8% 0.00 in W/m2
22:39 41.2 °F 35.5 °F 30.23 in NE 2.9 mph 7 mph 80% 0.00 in W/m2
22:44 41.3 °F 35.6 °F 30.23 in NE 2.5 mph 7 mph 80% 0.00 in W/m2
22:49 41.3 °F 35.6 °F 30.23 in NE 2.8 mph 8.1 mph 80% 0.00 in W/m2
22:54 41.4 °F 34.3 °F 30.23 in NE 3.4 mph 9 mph 75.8% 0.00 in W/m2
22:59 41.9 °F 32.3 °F 30.24 in NE 4.7 mph 11.5 mph 68.7% 0.00 in W/m2
23:04 42.4 °F 31.3 °F 30.24 in NE 4.4 mph 14 mph 64.6% 0.00 in W/m2
23:09 42.6 °F 30.4 °F 30.24 in NE 5.3 mph 14 mph 61.7% 0.00 in W/m2
23:14 42.7 °F 29.8 °F 30.24 in NE 5.4 mph 15 mph 60.1% 0.00 in W/m2
23:19 42.7 °F 29.6 °F 30.24 in NE 6.7 mph 15 mph 59.4% 0.00 in W/m2
23:24 42.7 °F 29.4 °F 30.24 in NE 6.6 mph 15 mph 59% 0.00 in W/m2
23:29 42.6 °F 29.3 °F 30.24 in NE 5.1 mph 13 mph 59% 0.00 in W/m2
23:34 42.6 °F 29.3 °F 30.24 in NE 4 mph 12 mph 59% 0.00 in W/m2
23:39 42.5 °F 29.2 °F 30.25 in NE 4.6 mph 12 mph 59% 0.00 in W/m2
23:44 42.5 °F 29.2 °F 30.25 in NE 5.2 mph 11 mph 59% 0.00 in W/m2
23:49 42.5 °F 29 °F 30.25 in NE 7.3 mph 14 mph 58.6% 0.00 in W/m2
23:54 42.5 °F 29.1 °F 30.25 in NE 5.3 mph 14 mph 58.8% 0.00 in W/m2
23:59 42.4 °F 29.3 °F 30.25 in NE 4.2 mph 11 mph 59.3% 0.00 in W/m2
Acquaviva delle Fonti, BA, Italia
Complimenti a Weather Underground - 3.25 mb